createdAt,value
2022-11-03T00:00:21.146Z,0
2022-11-03T00:01:21.136Z,0
2022-11-03T00:02:21.257Z,0
2022-11-03T00:03:21.110Z,0
2022-11-03T00:04:21.116Z,0
2022-11-03T00:05:21.115Z,0
2022-11-03T00:06:21.114Z,0
2022-11-03T00:07:21.148Z,0
2022-11-03T00:08:21.125Z,0
2022-11-03T00:09:21.119Z,0
2022-11-03T00:10:21.120Z,0
2022-11-03T00:11:21.122Z,0
2022-11-03T00:12:21.124Z,0
2022-11-03T00:13:21.126Z,0
2022-11-03T00:14:21.124Z,0
2022-11-03T00:15:21.117Z,0
2022-11-03T00:16:21.123Z,0
2022-11-03T00:17:21.144Z,0
2022-11-03T00:18:21.118Z,0
2022-11-03T00:19:21.129Z,0
2022-11-03T00:20:21.118Z,0
2022-11-03T00:21:21.117Z,0
2022-11-03T00:22:21.135Z,0
2022-11-03T00:23:21.312Z,0
2022-11-03T00:24:21.117Z,0
2022-11-03T00:25:21.117Z,0
2022-11-03T00:26:21.114Z,0
2022-11-03T00:27:21.124Z,0
2022-11-03T00:28:21.125Z,0
2022-11-03T00:29:21.117Z,0
2022-11-03T00:30:21.121Z,0
2022-11-03T00:31:21.101Z,0
2022-11-03T00:32:21.130Z,0
2022-11-03T00:33:21.115Z,0
2022-11-03T00:34:21.111Z,0
2022-11-03T00:35:21.119Z,0
2022-11-03T00:36:21.111Z,0
2022-11-03T00:37:21.134Z,0
2022-11-03T00:38:21.130Z,0
2022-11-03T00:39:21.122Z,0
2022-11-03T00:40:21.098Z,0
2022-11-03T00:41:21.119Z,0
2022-11-03T00:42:21.111Z,0
2022-11-03T00:43:21.111Z,0
2022-11-03T00:44:21.098Z,0
2022-11-03T00:45:21.101Z,0
2022-11-03T00:46:21.098Z,0
2022-11-03T00:47:24.183Z,0
2022-11-03T00:48:21.099Z,0
2022-11-03T00:49:21.104Z,0
2022-11-03T00:50:21.140Z,0
2022-11-03T00:51:21.101Z,0
2022-11-03T00:52:21.120Z,0
2022-11-03T00:53:21.127Z,0
2022-11-03T00:54:21.097Z,0
2022-11-03T00:55:21.097Z,0
2022-11-03T00:56:21.102Z,0
2022-11-03T00:57:21.118Z,0
2022-11-03T00:58:21.102Z,0
2022-11-03T00:59:21.097Z,0
2022-11-03T01:00:21.127Z,0
2022-11-03T01:01:21.256Z,0
2022-11-03T01:02:21.170Z,0
2022-11-03T01:03:21.109Z,0
2022-11-03T01:04:21.115Z,0
2022-11-03T01:05:21.105Z,0
2022-11-03T01:06:21.171Z,0
2022-11-03T01:07:21.135Z,0
2022-11-03T01:08:22.489Z,0
2022-11-03T01:09:21.139Z,0
2022-11-03T01:10:21.127Z,0
2022-11-03T01:11:21.118Z,0
2022-11-03T01:12:21.125Z,0
2022-11-03T01:13:21.124Z,0
2022-11-03T01:14:21.122Z,0
2022-11-03T01:15:21.111Z,0
2022-11-03T01:16:21.116Z,0
2022-11-03T01:17:21.134Z,0
2022-11-03T01:18:21.117Z,0
2022-11-03T01:19:21.108Z,0
2022-11-03T01:20:21.119Z,0
2022-11-03T01:21:21.131Z,0
2022-11-03T01:22:21.132Z,0
2022-11-03T01:23:21.114Z,0
2022-11-03T01:24:21.127Z,0
2022-11-03T01:25:21.144Z,0
2022-11-03T01:26:21.115Z,0
2022-11-03T01:27:21.132Z,0
2022-11-03T01:28:21.117Z,0
2022-11-03T01:29:21.121Z,0
2022-11-03T01:30:21.117Z,0
2022-11-03T01:31:21.124Z,0
2022-11-03T01:32:21.133Z,0
2022-11-03T01:33:21.124Z,0
2022-11-03T01:34:21.122Z,0
2022-11-03T01:35:21.118Z,0
2022-11-03T01:36:21.121Z,0
2022-11-03T01:37:21.222Z,0
2022-11-03T01:38:21.109Z,0
2022-11-03T01:39:21.116Z,0
2022-11-03T01:40:21.121Z,0
2022-11-03T01:41:21.131Z,0
2022-11-03T01:42:21.125Z,0
2022-11-03T01:43:21.130Z,0
2022-11-03T01:44:21.123Z,0
2022-11-03T01:45:21.120Z,0
2022-11-03T01:46:21.123Z,0
2022-11-03T01:47:21.150Z,0
2022-11-03T01:48:21.124Z,0
2022-11-03T01:49:21.120Z,0
2022-11-03T01:50:21.112Z,0
2022-11-03T01:51:21.116Z,0
2022-11-03T01:52:21.124Z,0
2022-11-03T01:53:21.119Z,0
2022-11-03T01:54:21.116Z,0
2022-11-03T01:55:21.099Z,0
2022-11-03T01:56:21.121Z,0
2022-11-03T01:57:21.137Z,0
2022-11-03T01:58:21.101Z,0
2022-11-03T01:59:21.103Z,0
2022-11-03T02:00:21.115Z,0
2022-11-03T02:01:21.175Z,0
2022-11-03T02:02:21.166Z,0
2022-11-03T02:03:21.096Z,0
2022-11-03T02:04:21.105Z,0
2022-11-03T02:05:21.096Z,0
2022-11-03T02:06:21.105Z,0
2022-11-03T02:07:21.115Z,0
2022-11-03T02:08:21.111Z,0
2022-11-03T02:09:21.100Z,0
2022-11-03T02:10:21.103Z,0
2022-11-03T02:11:21.111Z,0
2022-11-03T02:12:21.109Z,0
2022-11-03T02:13:21.218Z,0
2022-11-03T02:14:21.100Z,0
2022-11-03T02:15:21.113Z,0
2022-11-03T02:16:21.098Z,0
2022-11-03T02:17:21.122Z,0
2022-11-03T02:18:21.107Z,0
2022-11-03T02:19:21.117Z,0
2022-11-03T02:20:21.115Z,0
2022-11-03T02:21:21.115Z,0
2022-11-03T02:22:21.122Z,0
2022-11-03T02:23:21.115Z,0
2022-11-03T02:24:21.111Z,0
2022-11-03T02:25:21.110Z,0
2022-11-03T02:26:21.120Z,0
2022-11-03T02:27:21.136Z,0
2022-11-03T02:28:21.122Z,0
2022-11-03T02:29:21.123Z,0
2022-11-03T02:30:21.115Z,0
2022-11-03T02:31:21.097Z,0
2022-11-03T02:32:21.122Z,0
2022-11-03T02:33:21.109Z,0
2022-11-03T02:34:21.105Z,0
2022-11-03T02:35:21.110Z,0
2022-11-03T02:36:21.120Z,0
2022-11-03T02:37:21.130Z,0
2022-11-03T02:38:21.124Z,0
2022-11-03T02:39:21.105Z,0
2022-11-03T02:40:21.118Z,0
2022-11-03T02:41:21.118Z,0
2022-11-03T02:42:21.136Z,0
2022-11-03T02:43:21.112Z,0
2022-11-03T02:44:21.111Z,0
2022-11-03T02:45:21.114Z,0
2022-11-03T02:46:21.115Z,0
2022-11-03T02:47:21.117Z,0
2022-11-03T02:48:21.097Z,0
2022-11-03T02:49:21.107Z,0
2022-11-03T02:50:21.118Z,0
2022-11-03T02:51:21.118Z,0
2022-11-03T02:52:21.125Z,0
2022-11-03T02:53:21.110Z,0
2022-11-03T02:54:21.109Z,0
2022-11-03T02:55:21.111Z,0
2022-11-03T02:56:21.206Z,0
2022-11-03T02:57:21.136Z,0
2022-11-03T02:58:21.126Z,0
2022-11-03T02:59:21.122Z,0
2022-11-03T03:00:21.107Z,0
2022-11-03T03:01:21.265Z,0
2022-11-03T03:02:21.188Z,0
2022-11-03T03:03:21.116Z,0
2022-11-03T03:04:21.132Z,0
2022-11-03T03:05:21.110Z,0
2022-11-03T03:06:21.113Z,0
2022-11-03T03:07:21.143Z,0
2022-11-03T03:08:21.118Z,0
2022-11-03T03:09:21.118Z,0
2022-11-03T03:10:21.119Z,0
2022-11-03T03:11:21.178Z,0
2022-11-03T03:12:21.108Z,0
2022-11-03T03:13:21.113Z,0
2022-11-03T03:14:21.107Z,0
2022-11-03T03:15:21.102Z,0
2022-11-03T03:16:21.106Z,0
2022-11-03T03:17:21.118Z,0
2022-11-03T03:18:21.093Z,0
2022-11-03T03:19:21.094Z,0
2022-11-03T03:20:21.094Z,0
2022-11-03T03:21:21.104Z,0
2022-11-03T03:22:21.103Z,0
2022-11-03T03:23:21.109Z,0
2022-11-03T03:24:21.110Z,0
2022-11-03T03:25:21.103Z,0
2022-11-03T03:26:21.103Z,0
2022-11-03T03:27:21.134Z,0
2022-11-03T03:28:21.106Z,0
2022-11-03T03:29:21.113Z,0
2022-11-03T03:30:21.117Z,0
2022-11-03T03:31:21.116Z,0
2022-11-03T03:32:21.116Z,0
2022-11-03T03:33:21.168Z,0
2022-11-03T03:34:34.685Z,0
2022-11-03T03:35:21.117Z,0
2022-11-03T03:36:21.112Z,0
2022-11-03T03:37:21.137Z,0
2022-11-03T03:38:21.123Z,0
2022-11-03T03:39:21.120Z,0
2022-11-03T03:40:21.117Z,0
2022-11-03T03:41:21.121Z,0
2022-11-03T03:42:21.122Z,0
2022-11-03T03:43:21.122Z,0
2022-11-03T03:44:21.135Z,0
2022-11-03T03:45:21.114Z,0
2022-11-03T03:46:21.110Z,0
2022-11-03T03:47:21.130Z,0
2022-11-03T03:48:21.133Z,0
2022-11-03T03:49:21.115Z,0
2022-11-03T03:50:21.110Z,0
2022-11-03T03:51:21.119Z,0
2022-11-03T03:52:21.115Z,0
2022-11-03T03:53:21.123Z,0
2022-11-03T03:54:21.115Z,0
2022-11-03T03:55:21.186Z,0
2022-11-03T03:56:21.115Z,0
2022-11-03T03:57:21.135Z,0
2022-11-03T03:58:21.114Z,0
2022-11-03T03:59:21.128Z,0
2022-11-03T04:00:21.106Z,0
2022-11-03T04:01:21.269Z,0
2022-11-03T04:02:21.197Z,0
2022-11-03T04:03:21.120Z,0
2022-11-03T04:04:21.125Z,0
2022-11-03T04:05:21.120Z,0
2022-11-03T04:06:21.111Z,0
2022-11-03T04:07:21.128Z,0
2022-11-03T04:08:21.108Z,0
2022-11-03T04:09:21.118Z,0
2022-11-03T04:10:21.116Z,0
2022-11-03T04:11:21.125Z,0
2022-11-03T04:12:21.125Z,0
2022-11-03T04:13:21.111Z,0
2022-11-03T04:14:21.120Z,0
2022-11-03T04:15:21.133Z,0
2022-11-03T04:16:21.115Z,0
2022-11-03T04:17:21.119Z,0
2022-11-03T04:18:21.115Z,0
2022-11-03T04:19:21.095Z,0
2022-11-03T04:20:21.103Z,0
2022-11-03T04:21:21.096Z,0
2022-11-03T04:22:21.103Z,0
2022-11-03T04:23:21.107Z,0
2022-11-03T04:24:21.103Z,0
2022-11-03T04:25:21.106Z,0
2022-11-03T04:26:21.097Z,0
2022-11-03T04:27:21.112Z,0
2022-11-03T04:28:21.098Z,0
2022-11-03T04:29:21.100Z,0
2022-11-03T04:30:21.117Z,0
2022-11-03T04:31:21.157Z,0
2022-11-03T04:32:21.104Z,0
2022-11-03T04:33:21.112Z,0
2022-11-03T04:34:21.104Z,0
2022-11-03T04:35:21.101Z,0
2022-11-03T04:36:21.107Z,0
2022-11-03T04:37:21.114Z,0
2022-11-03T04:38:21.099Z,0
2022-11-03T04:39:21.120Z,0
2022-11-03T04:40:21.125Z,0
2022-11-03T04:41:21.117Z,0
2022-11-03T04:42:21.128Z,0
2022-11-03T04:43:21.168Z,0
2022-11-03T04:44:21.114Z,0
2022-11-03T04:45:21.107Z,0
2022-11-03T04:46:21.135Z,0
2022-11-03T04:47:21.125Z,0
2022-11-03T04:48:21.117Z,0
2022-11-03T04:49:21.107Z,0
2022-11-03T04:50:21.111Z,0
2022-11-03T04:51:21.116Z,0
2022-11-03T04:52:21.128Z,0
2022-11-03T04:53:21.128Z,0
2022-11-03T04:54:21.119Z,0
2022-11-03T04:55:21.119Z,0
2022-11-03T04:56:21.114Z,0
2022-11-03T04:57:21.127Z,0
2022-11-03T04:58:21.117Z,0
2022-11-03T04:59:21.108Z,0
2022-11-03T05:00:21.115Z,0
2022-11-03T05:01:24.044Z,0
2022-11-03T05:02:21.188Z,0
2022-11-03T05:03:21.125Z,0
2022-11-03T05:04:21.196Z,0
2022-11-03T05:05:21.115Z,0
2022-11-03T05:06:21.108Z,0
2022-11-03T05:07:21.124Z,0
2022-11-03T05:08:21.122Z,0
2022-11-03T05:09:21.102Z,0
2022-11-03T05:10:21.121Z,0
2022-11-03T05:11:21.113Z,0
2022-11-03T05:12:21.129Z,0
2022-11-03T05:13:21.111Z,0
2022-11-03T05:14:21.113Z,0
2022-11-03T05:15:21.124Z,0
2022-11-03T05:16:21.115Z,0
2022-11-03T05:17:21.134Z,0
2022-11-03T05:18:21.116Z,0
2022-11-03T05:19:21.119Z,0
2022-11-03T05:20:21.112Z,0
2022-11-03T05:21:21.108Z,0
2022-11-03T05:22:21.132Z,0
2022-11-03T05:23:21.127Z,0
2022-11-03T05:24:21.131Z,0
2022-11-03T05:25:21.118Z,1
2022-11-03T05:26:21.124Z,1
2022-11-03T05:27:21.128Z,1
2022-11-03T05:28:21.116Z,3
2022-11-03T05:29:21.104Z,5
2022-11-03T05:30:21.111Z,5
2022-11-03T05:31:21.106Z,7
2022-11-03T05:32:21.109Z,7
2022-11-03T05:33:21.106Z,11
2022-11-03T05:34:21.100Z,12
2022-11-03T05:35:21.100Z,14
2022-11-03T05:36:21.100Z,18
2022-11-03T05:37:26.053Z,22
2022-11-03T05:38:21.112Z,25
2022-11-03T05:39:21.104Z,31
2022-11-03T05:40:21.115Z,36
2022-11-03T05:41:21.100Z,42
2022-11-03T05:42:21.104Z,51
2022-11-03T05:43:21.117Z,58
2022-11-03T05:44:21.100Z,70
2022-11-03T05:45:21.094Z,81
2022-11-03T05:46:21.108Z,94
2022-11-03T05:47:21.108Z,108
2022-11-03T05:48:21.138Z,123
2022-11-03T05:49:21.114Z,138
2022-11-03T05:50:21.104Z,152
2022-11-03T05:51:21.113Z,165
2022-11-03T05:52:21.121Z,182
2022-11-03T05:53:21.110Z,199
2022-11-03T05:54:21.108Z,221
2022-11-03T05:55:21.112Z,234
2022-11-03T05:56:21.111Z,254
2022-11-03T05:57:21.124Z,272
2022-11-03T05:58:21.113Z,296
2022-11-03T05:59:21.125Z,322
2022-11-03T06:00:21.103Z,350
2022-11-03T06:01:21.180Z,383
2022-11-03T06:02:21.219Z,383
2022-11-03T06:03:21.122Z,457
2022-11-03T06:04:21.119Z,503
2022-11-03T06:05:21.120Z,547
2022-11-03T06:06:21.126Z,589
2022-11-03T06:07:21.121Z,635
2022-11-03T06:08:21.158Z,689
2022-11-03T06:09:21.110Z,757
2022-11-03T06:10:21.099Z,853
2022-11-03T06:11:21.102Z,965
2022-11-03T06:12:21.124Z,1080
2022-11-03T06:13:21.109Z,1210
2022-11-03T06:14:24.088Z,1301
2022-11-03T06:15:21.112Z,1347
2022-11-03T06:16:21.121Z,1369
2022-11-03T06:17:21.119Z,1303
2022-11-03T06:18:21.121Z,1365
2022-11-03T06:19:21.117Z,1395
2022-11-03T06:20:21.095Z,1428
2022-11-03T06:21:21.120Z,1415
2022-11-03T06:22:21.125Z,1522
2022-11-03T06:23:21.130Z,1572
2022-11-03T06:24:21.114Z,1819
2022-11-03T06:25:21.120Z,1861
2022-11-03T06:26:21.104Z,1894
2022-11-03T06:27:21.133Z,1998
2022-11-03T06:28:21.112Z,2023
2022-11-03T06:29:21.103Z,1999
2022-11-03T06:30:21.103Z,2084
2022-11-03T06:31:23.185Z,2151
2022-11-03T06:32:21.125Z,2322
2022-11-03T06:33:21.121Z,2447
2022-11-03T06:34:21.134Z,2915
2022-11-03T06:35:21.108Z,3124
2022-11-03T06:36:21.110Z,4051
2022-11-03T06:37:21.123Z,4126
2022-11-03T06:38:21.138Z,4666
2022-11-03T06:39:21.111Z,3933
2022-11-03T06:40:21.104Z,4851
2022-11-03T06:41:21.103Z,4842
2022-11-03T06:42:21.111Z,6779
2022-11-03T06:43:21.095Z,6779
2022-11-03T06:44:21.095Z,6530
2022-11-03T06:45:21.107Z,4880
2022-11-03T06:46:21.106Z,5767
2022-11-03T06:47:21.108Z,5653
2022-11-03T06:48:21.103Z,5697
2022-11-03T06:49:21.112Z,6443
2022-11-03T06:50:21.127Z,6641
2022-11-03T06:51:21.099Z,6338
2022-11-03T06:52:21.112Z,6862
2022-11-03T06:53:21.114Z,7922
2022-11-03T06:54:21.095Z,8115
2022-11-03T06:55:21.094Z,7903
2022-11-03T06:56:21.102Z,7857
2022-11-03T06:57:21.114Z,7575
2022-11-03T06:58:21.105Z,7004
2022-11-03T06:59:21.159Z,6827
2022-11-03T07:00:33.958Z,6736
2022-11-03T07:01:21.174Z,6893
2022-11-03T07:02:21.181Z,6893
2022-11-03T07:03:21.122Z,5524
2022-11-03T07:04:21.096Z,5529
2022-11-03T07:05:21.130Z,5905
2022-11-03T07:06:21.117Z,6467
2022-11-03T07:07:21.129Z,7160
2022-11-03T07:08:21.120Z,7428
2022-11-03T07:09:21.118Z,7302
2022-11-03T07:10:21.096Z,7404
2022-11-03T07:11:21.109Z,6947
2022-11-03T07:12:21.169Z,6910
2022-11-03T07:13:21.105Z,6670
2022-11-03T07:14:21.114Z,7011
2022-11-03T07:15:21.119Z,7223
2022-11-03T07:16:21.117Z,7359
2022-11-03T07:17:21.129Z,7286
2022-11-03T07:18:21.119Z,7778
2022-11-03T07:19:21.118Z,8773
2022-11-03T07:20:21.126Z,8423
2022-11-03T07:21:21.131Z,8259
2022-11-03T07:22:21.131Z,8338
2022-11-03T07:23:21.119Z,8102
2022-11-03T07:24:21.109Z,8440
2022-11-03T07:25:21.118Z,8681
2022-11-03T07:26:21.116Z,8390
2022-11-03T07:27:21.124Z,8830
2022-11-03T07:28:21.116Z,8646
2022-11-03T07:29:21.118Z,9074
2022-11-03T07:30:21.096Z,8910
2022-11-03T07:31:21.147Z,8545
2022-11-03T07:32:21.120Z,8863
2022-11-03T07:33:21.111Z,8545
2022-11-03T07:34:21.157Z,7973
2022-11-03T07:35:21.107Z,8152
2022-11-03T07:36:21.132Z,8539
2022-11-03T07:37:21.196Z,8357
2022-11-03T07:38:21.115Z,8845
2022-11-03T07:39:21.124Z,8342
2022-11-03T07:40:21.100Z,7308
2022-11-03T07:41:21.125Z,6512
2022-11-03T07:42:21.122Z,6558
2022-11-03T07:43:21.121Z,7048
2022-11-03T07:44:21.120Z,8122
2022-11-03T07:45:21.122Z,9053
2022-11-03T07:46:21.112Z,10246
2022-11-03T07:47:21.130Z,11743
2022-11-03T07:48:21.113Z,12072
2022-11-03T07:49:21.191Z,12150
2022-11-03T07:50:21.093Z,11593
2022-11-03T07:51:21.103Z,10955
2022-11-03T07:52:21.103Z,11455
2022-11-03T07:53:25.820Z,10657
2022-11-03T07:54:21.121Z,12550
2022-11-03T07:55:21.101Z,12891
2022-11-03T07:56:21.255Z,12679
2022-11-03T07:57:21.106Z,12773
2022-11-03T07:58:21.097Z,12935
2022-11-03T07:59:21.187Z,12821
2022-11-03T08:00:21.124Z,13094
2022-11-03T08:01:21.154Z,13344
2022-11-03T08:02:21.257Z,13344
2022-11-03T08:03:21.095Z,12692
2022-11-03T08:04:21.095Z,12201
2022-11-03T08:05:21.107Z,12683
2022-11-03T08:06:21.099Z,12815
2022-11-03T08:07:21.115Z,13064
2022-11-03T08:08:21.111Z,13717
2022-11-03T08:09:21.108Z,14590
2022-11-03T08:10:21.097Z,14935
2022-11-03T08:11:23.323Z,15058
2022-11-03T08:12:21.122Z,14826
2022-11-03T08:13:21.117Z,14701
2022-11-03T08:14:21.189Z,15602
2022-11-03T08:15:21.106Z,16463
2022-11-03T08:16:21.111Z,16942
2022-11-03T08:17:21.117Z,17891
2022-11-03T08:18:21.123Z,18857
2022-11-03T08:19:21.116Z,17031
2022-11-03T08:20:21.108Z,16398
2022-11-03T08:21:21.116Z,15108
2022-11-03T08:22:21.118Z,14841
2022-11-03T08:23:25.992Z,14447
2022-11-03T08:24:21.108Z,14052
2022-11-03T08:25:21.114Z,14303
2022-11-03T08:26:21.124Z,14428
2022-11-03T08:27:21.130Z,14177
2022-11-03T08:28:21.127Z,14727
2022-11-03T08:29:21.115Z,14795
2022-11-03T08:30:21.094Z,14950
2022-11-03T08:31:21.111Z,14780
2022-11-03T08:32:21.126Z,14800
2022-11-03T08:33:21.187Z,15160
2022-11-03T08:34:21.123Z,15519
2022-11-03T08:35:21.110Z,15927
2022-11-03T08:36:21.112Z,15958
2022-11-03T08:37:21.114Z,15779
2022-11-03T08:38:21.128Z,15975
2022-11-03T08:39:21.113Z,16201
2022-11-03T08:40:21.123Z,16310
2022-11-03T08:41:21.110Z,16682
2022-11-03T08:42:21.110Z,16809
2022-11-03T08:43:21.118Z,16806
2022-11-03T08:44:21.111Z,16627
2022-11-03T08:45:21.114Z,16854
2022-11-03T08:46:21.197Z,16703
2022-11-03T08:47:21.131Z,16749
2022-11-03T08:48:21.109Z,16854
2022-11-03T08:49:21.126Z,16170
2022-11-03T08:50:21.119Z,15803
2022-11-03T08:51:21.117Z,15296
2022-11-03T08:52:21.106Z,15250
2022-11-03T08:53:21.120Z,15322
2022-11-03T08:54:21.127Z,15407
2022-11-03T08:55:21.121Z,15735
2022-11-03T08:56:22.632Z,15646
2022-11-03T08:57:21.132Z,15403
2022-11-03T08:58:21.107Z,15436
2022-11-03T08:59:21.115Z,15363
2022-11-03T09:00:21.111Z,15071
2022-11-03T09:01:21.224Z,15680
2022-11-03T09:02:21.195Z,15680
2022-11-03T09:03:21.202Z,15680
2022-11-03T09:04:21.104Z,16067
2022-11-03T09:05:21.096Z,16024
2022-11-03T09:06:21.094Z,16336
2022-11-03T09:07:21.218Z,16363
2022-11-03T09:10:23.403Z,16151
2022-11-03T09:11:21.095Z,15630
2022-11-03T09:12:21.111Z,15250
2022-11-03T09:13:21.111Z,15433
2022-11-03T09:14:21.094Z,15224
2022-11-03T09:15:21.093Z,15329
2022-11-03T09:16:21.095Z,15492
2022-11-03T09:17:21.131Z,15436
2022-11-03T09:18:21.099Z,15785
2022-11-03T09:19:21.108Z,15934
2022-11-03T09:20:21.136Z,15348
2022-11-03T09:21:21.105Z,15302
2022-11-03T09:22:21.116Z,15272
2022-11-03T09:23:21.101Z,15077
2022-11-03T09:24:21.110Z,15099
2022-11-03T09:25:21.108Z,15105
2022-11-03T09:26:21.113Z,14791
2022-11-03T09:27:21.132Z,15215
2022-11-03T09:28:21.099Z,15007
2022-11-03T09:29:21.107Z,14944
2022-11-03T09:30:21.302Z,15704
2022-11-03T09:31:21.129Z,15794
2022-11-03T09:32:23.241Z,15492
2022-11-03T09:33:21.118Z,15558
2022-11-03T09:34:21.112Z,16203
2022-11-03T09:35:21.119Z,16214
2022-11-03T09:36:21.116Z,15805
2022-11-03T09:37:21.123Z,15829
2022-11-03T09:38:21.114Z,16124
2022-11-03T09:39:21.125Z,15928
2022-11-03T09:40:21.189Z,15796
2022-11-03T09:41:28.062Z,16362
2022-11-03T09:42:21.121Z,15934
2022-11-03T09:43:21.134Z,16032
2022-11-03T09:44:21.117Z,16242
2022-11-03T09:45:21.123Z,17027
2022-11-03T09:46:21.110Z,16970
2022-11-03T09:47:21.129Z,17230
2022-11-03T09:48:21.125Z,16539
2022-11-03T09:49:21.112Z,15530
2022-11-03T09:50:21.311Z,15575
2022-11-03T09:51:21.112Z,15790
2022-11-03T09:52:21.114Z,15975
2022-11-03T09:53:21.126Z,15716
2022-11-03T09:54:21.116Z,15206
2022-11-03T09:55:21.131Z,17097
2022-11-03T09:56:21.112Z,16741
2022-11-03T09:57:21.121Z,16633
2022-11-03T09:58:21.120Z,17256
2022-11-03T09:59:21.107Z,17353
2022-11-03T10:00:21.094Z,17079
2022-11-03T10:01:21.334Z,17580
2022-11-03T10:02:21.218Z,17580
2022-11-03T10:03:21.119Z,17578
2022-11-03T10:04:21.113Z,17549
2022-11-03T10:05:21.097Z,17381
2022-11-03T10:06:21.153Z,17069
2022-11-03T10:07:21.121Z,17169
2022-11-03T10:08:22.626Z,16933
2022-11-03T10:09:21.109Z,16839
2022-11-03T10:10:21.127Z,16806
2022-11-03T10:11:21.117Z,17386
2022-11-03T10:12:21.120Z,17493
2022-11-03T10:13:21.121Z,17086
2022-11-03T10:14:21.112Z,17394
2022-11-03T10:15:21.116Z,17357
2022-11-03T10:16:21.113Z,17112
2022-11-03T10:17:21.121Z,17115
2022-11-03T10:18:21.108Z,17197
2022-11-03T10:19:21.099Z,17501
2022-11-03T10:20:21.095Z,17812
2022-11-03T10:21:21.097Z,17851
2022-11-03T10:22:21.103Z,17943
2022-11-03T10:23:21.097Z,17840
2022-11-03T10:24:21.099Z,17750
2022-11-03T10:25:21.100Z,18531
2022-11-03T10:26:21.266Z,18526
2022-11-03T10:27:21.109Z,18291
2022-11-03T10:28:21.111Z,18317
2022-11-03T10:29:21.122Z,18137
2022-11-03T10:30:21.101Z,17773
2022-11-03T10:31:21.103Z,18107
2022-11-03T10:32:21.107Z,18269
2022-11-03T10:33:21.107Z,18398
2022-11-03T10:34:21.100Z,18426
2022-11-03T10:35:21.098Z,18408
2022-11-03T10:36:21.103Z,18149
2022-11-03T10:37:21.126Z,18113
2022-11-03T10:38:21.097Z,17906
2022-11-03T10:39:21.093Z,17801
2022-11-03T10:40:46.652Z,16787
2022-11-03T10:41:21.112Z,17797
2022-11-03T10:42:21.118Z,17733
2022-11-03T10:43:21.095Z,17864
2022-11-03T10:44:21.099Z,17952
2022-11-03T10:45:21.121Z,17720
2022-11-03T10:46:44.653Z,17106
2022-11-03T10:47:21.120Z,17350
2022-11-03T10:48:21.116Z,17442
2022-11-03T10:49:21.596Z,17217
2022-11-03T10:50:21.115Z,17213
2022-11-03T10:51:21.117Z,17272
2022-11-03T10:52:21.291Z,17219
2022-11-03T10:53:21.172Z,17281
2022-11-03T10:54:21.119Z,17427
2022-11-03T10:55:24.832Z,17403
2022-11-03T10:56:21.116Z,17362
2022-11-03T10:57:21.129Z,17178
2022-11-03T10:58:21.105Z,17383
2022-11-03T10:59:21.111Z,17501
2022-11-03T11:00:21.097Z,17479
2022-11-03T11:01:21.269Z,17340
2022-11-03T11:02:21.209Z,17340
2022-11-03T11:03:21.349Z,17276
2022-11-03T11:04:21.236Z,17213
2022-11-03T11:05:21.112Z,16456
2022-11-03T11:06:21.117Z,17139
2022-11-03T11:07:21.124Z,18179
2022-11-03T11:08:21.182Z,16605
2022-11-03T11:09:21.175Z,16513
2022-11-03T11:10:21.120Z,16312
2022-11-03T11:11:21.110Z,15025
2022-11-03T11:12:21.161Z,16109
2022-11-03T11:13:21.119Z,15919
2022-11-03T11:14:21.121Z,16021
2022-11-03T11:15:21.116Z,15234
2022-11-03T11:16:21.113Z,15280
2022-11-03T11:17:21.116Z,15281
2022-11-03T11:19:21.117Z,15514
2022-11-03T11:20:21.120Z,15963
2022-11-03T11:21:21.109Z,15866
2022-11-03T11:22:21.120Z,15599
2022-11-03T11:23:21.121Z,14465
2022-11-03T11:24:21.112Z,16078
2022-11-03T11:25:21.116Z,16201
2022-11-03T11:26:21.116Z,15411
2022-11-03T11:27:21.127Z,15302
2022-11-03T11:28:21.131Z,14977
2022-11-03T11:29:21.108Z,14297
2022-11-03T11:30:21.119Z,14192
2022-11-03T11:31:21.105Z,13731
2022-11-03T11:32:21.105Z,14268
2022-11-03T11:33:21.108Z,14603
2022-11-03T11:34:21.095Z,14662
2022-11-03T11:35:21.098Z,14314
2022-11-03T11:36:21.094Z,13466
2022-11-03T11:37:21.115Z,13455
2022-11-03T11:38:21.101Z,13494
2022-11-03T11:39:21.100Z,13400
2022-11-03T11:40:21.101Z,12893
2022-11-03T11:41:21.095Z,13060
2022-11-03T11:42:21.234Z,13025
2022-11-03T11:43:21.107Z,11437
2022-11-03T11:44:21.111Z,12876
2022-11-03T11:45:21.100Z,13038
2022-11-03T11:46:21.096Z,13016
2022-11-03T11:47:21.104Z,12636
2022-11-03T11:48:21.097Z,13073
2022-11-03T11:49:21.099Z,12968
2022-11-03T11:50:21.093Z,12627
2022-11-03T11:51:21.095Z,12769
2022-11-03T11:52:21.103Z,12847
2022-11-03T11:53:21.098Z,13130
2022-11-03T11:54:21.122Z,13031
2022-11-03T11:55:21.107Z,12384
2022-11-03T11:56:21.125Z,11940
2022-11-03T11:57:21.124Z,11330
2022-11-03T11:58:21.113Z,11748
2022-11-03T11:59:24.645Z,12467
2022-11-03T12:00:21.122Z,11990
2022-11-03T12:01:21.181Z,12181
2022-11-03T12:02:21.121Z,12181
2022-11-03T12:03:21.189Z,12190
2022-11-03T12:04:21.114Z,11501
2022-11-03T12:05:21.113Z,11553
2022-11-03T12:06:21.114Z,10987
2022-11-03T12:07:21.126Z,10299
2022-11-03T12:08:21.114Z,11523
2022-11-03T12:09:21.105Z,11081
2022-11-03T12:10:21.093Z,10970
2022-11-03T12:11:21.173Z,10240
2022-11-03T12:12:21.123Z,10021
2022-11-03T12:13:21.118Z,10589
2022-11-03T12:14:21.119Z,11350
2022-11-03T12:15:21.123Z,11578
2022-11-03T12:16:21.108Z,11309
2022-11-03T12:17:21.100Z,11636
2022-11-03T12:18:21.111Z,11709
2022-11-03T12:19:21.114Z,11811
2022-11-03T12:20:21.099Z,11877
2022-11-03T12:21:21.118Z,11951
2022-11-03T12:22:21.119Z,12089
2022-11-03T12:23:21.108Z,11134
2022-11-03T12:24:21.111Z,11763
2022-11-03T12:25:21.109Z,11966
2022-11-03T12:26:21.093Z,11789
2022-11-03T12:27:21.113Z,11956
2022-11-03T12:28:21.109Z,12192
2022-11-03T12:29:21.116Z,11881
2022-11-03T12:30:21.119Z,10959
2022-11-03T12:31:21.135Z,11193
2022-11-03T12:32:32.842Z,11453
2022-11-03T12:33:21.116Z,11249
2022-11-03T12:34:21.118Z,11206
2022-11-03T12:35:21.115Z,11276
2022-11-03T12:36:21.122Z,11479
2022-11-03T12:37:21.121Z,11857
2022-11-03T12:38:21.098Z,11518
2022-11-03T12:39:21.101Z,11844
2022-11-03T12:40:21.099Z,11564
2022-11-03T12:41:21.101Z,11975
2022-11-03T12:42:21.200Z,10814
2022-11-03T12:43:21.096Z,10935
2022-11-03T12:44:21.163Z,10655
2022-11-03T12:45:21.099Z,11341
2022-11-03T12:46:21.105Z,11249
2022-11-03T12:47:21.172Z,11730
2022-11-03T12:48:21.111Z,11341
2022-11-03T12:49:21.101Z,11687
2022-11-03T12:50:21.098Z,11044
2022-11-03T12:51:21.102Z,10532
2022-11-03T12:52:21.103Z,10474
2022-11-03T12:53:21.107Z,10653
2022-11-03T12:54:21.095Z,10334
2022-11-03T12:55:21.164Z,10039
2022-11-03T12:56:21.093Z,9580
2022-11-03T12:57:21.105Z,9462
2022-11-03T12:58:21.100Z,9462
2022-11-03T12:59:21.094Z,9778
2022-11-03T13:00:21.094Z,9665
2022-11-03T13:01:21.202Z,9188
2022-11-03T13:02:21.341Z,9188
2022-11-03T13:03:21.106Z,9251
2022-11-03T13:04:21.093Z,8849
2022-11-03T13:05:21.111Z,8460
2022-11-03T13:06:21.111Z,8712
2022-11-03T13:07:26.789Z,8567
2022-11-03T13:08:21.126Z,8443
2022-11-03T13:09:21.113Z,9136
2022-11-03T13:10:21.124Z,9230
2022-11-03T13:11:21.120Z,9236
2022-11-03T13:12:21.112Z,9109
2022-11-03T13:13:21.153Z,9274
2022-11-03T13:14:21.114Z,9085
2022-11-03T13:15:21.120Z,9114
2022-11-03T13:16:21.108Z,8924
2022-11-03T13:17:21.115Z,8038
2022-11-03T13:18:21.121Z,7570
2022-11-03T13:19:21.113Z,7793
2022-11-03T13:20:21.101Z,7687
2022-11-03T13:21:21.108Z,8222
2022-11-03T13:22:21.119Z,7269
2022-11-03T13:23:23.122Z,7168
2022-11-03T13:24:21.103Z,7394
2022-11-03T13:25:21.173Z,7444
2022-11-03T13:26:21.113Z,7206
2022-11-03T13:27:21.126Z,6274
2022-11-03T13:28:21.123Z,6371
2022-11-03T13:29:21.115Z,6672
2022-11-03T13:30:21.108Z,6744
2022-11-03T13:31:21.098Z,6528
2022-11-03T13:32:21.118Z,6696
2022-11-03T13:33:21.117Z,6591
2022-11-03T13:34:21.125Z,6701
2022-11-03T13:35:21.105Z,6919
2022-11-03T13:36:21.163Z,7140
2022-11-03T13:37:21.115Z,7217
2022-11-03T13:38:21.136Z,7382
2022-11-03T13:39:21.106Z,7300
2022-11-03T13:40:55.530Z,6851
2022-11-03T13:41:21.116Z,6583
2022-11-03T13:42:21.117Z,6594
2022-11-03T13:43:21.119Z,6515
2022-11-03T13:44:21.117Z,6047
2022-11-03T13:45:21.109Z,5783
2022-11-03T13:46:21.110Z,5748